< < Back
Terminal Aerodrome Forecast


Current Version              Previous Versions:   1  2  3  4  5  6  7  8  9  

Terminal Aerodrome Forecast

706
FTUS42 KILM 221730
TAFILM
TAF
KILM 221730Z 2218/2318 04006KT P6SM FEW040
     FM222300 VRB03KT P6SM SCT250
     FM231300 03010G16KT P6SM SKC=

Latest METAR

880
SAUS70 KWBC 231100 RRI
MTRILM
METAR KILM 231053Z 00000KT 8SM CLR 13/12 A3035 RMK AO2 SLP277
T01330122


USA.gov is the U.S. government's official web portal to all federal, state and local government web resources and services.